Terminal Aerodrome Forecast
Issued by NWS Charleston, WV

Current Version | Previous Version | Graphics & Text | Print | Product List | Glossary On
Versions: 1 2 3 4 5 6 7 8 9 10 11 12 13 14 15 16 17 18 19 20 21 22 23 24 25 26 27 28
000
FTUS41 KRLX 221755
TAFPKB
TAF
KPKB 221755Z 2218/2318 20005KT P6SM OVC015
      TEMPO 2218/2222 BKN025
     FM222200 19005KT P6SM BKN035
     FM230400 18004KT P6SM OVC060
     FM230600 VRB03KT 5SM BR BKN035
     FM230800 VRB03KT 6SM BR OVC050
     FM231400 20004KT 5SM SHRA BKN025
     FM231700 21004KT P6SM BKN025=

USA.gov is the U.S. government's official web portal to all federal, state and local government web resources and services.